createdAt,value
2017-02-14T00:00:11.863Z,27
2017-02-14T00:01:12.630Z,27
2017-02-14T00:02:11.917Z,27
2017-02-14T00:03:15.280Z,27
2017-02-14T00:04:14.935Z,27
2017-02-14T00:05:15.062Z,27
2017-02-14T00:06:15.285Z,27
2017-02-14T00:07:12.280Z,27
2017-02-14T00:08:15.628Z,26.9
2017-02-14T00:09:12.431Z,26.9
2017-02-14T00:10:15.327Z,27
2017-02-14T00:11:12.595Z,27
2017-02-14T00:12:12.604Z,27
2017-02-14T00:13:12.514Z,27
2017-02-14T00:14:13.019Z,27
2017-02-14T00:15:15.525Z,27
2017-02-14T00:16:12.692Z,27
2017-02-14T00:17:15.696Z,27
2017-02-14T00:18:15.770Z,27
2017-02-14T00:19:12.861Z,27
2017-02-14T00:20:16.149Z,27
2017-02-14T00:21:12.912Z,27
2017-02-14T00:22:12.951Z,27
2017-02-14T00:23:15.872Z,27
2017-02-14T00:24:15.879Z,27
2017-02-14T00:25:13.156Z,27
2017-02-14T00:26:13.555Z,27
2017-02-14T00:27:16.090Z,27
2017-02-14T00:28:13.353Z,27
2017-02-14T00:29:16.239Z,27
2017-02-14T00:30:13.504Z,27
2017-02-14T00:31:16.459Z,27
2017-02-14T00:32:16.714Z,27
2017-02-14T00:33:13.581Z,27
2017-02-14T00:34:16.460Z,27
2017-02-14T00:35:13.583Z,26.9
2017-02-14T00:36:16.646Z,27
2017-02-14T00:37:13.846Z,26.9
2017-02-14T00:38:17.067Z,27
2017-02-14T00:39:16.904Z,26.9
2017-02-14T00:40:16.737Z,27
2017-02-14T00:41:16.746Z,27
2017-02-14T00:42:16.756Z,26.9
2017-02-14T00:43:16.778Z,26.9
2017-02-14T00:44:17.121Z,27
2017-02-14T00:45:14.010Z,27
2017-02-14T00:46:18.316Z,27
2017-02-14T00:47:17.036Z,27
2017-02-14T00:48:14.368Z,27
2017-02-14T00:49:17.192Z,27
2017-02-14T00:50:17.659Z,27
2017-02-14T00:51:17.400Z,27
2017-02-14T00:52:17.348Z,26.9
2017-02-14T00:53:17.373Z,27
2017-02-14T00:54:17.504Z,27
2017-02-14T00:55:17.563Z,27
2017-02-14T00:56:17.915Z,27
2017-02-14T00:57:14.843Z,27
2017-02-14T00:58:14.897Z,27
2017-02-14T00:59:17.695Z,27
2017-02-14T01:00:17.824Z,27
2017-02-14T01:01:14.927Z,26.9
2017-02-14T01:02:15.396Z,26.9
2017-02-14T01:03:17.932Z,27
2017-02-14T01:04:18.039Z,27
2017-02-14T01:05:15.264Z,27
2017-02-14T01:06:18.073Z,27
2017-02-14T01:07:18.099Z,27
2017-02-14T01:08:15.530Z,27
2017-02-14T01:09:18.183Z,27
2017-02-14T01:10:15.477Z,27
2017-02-14T01:11:15.591Z,27
2017-02-14T01:12:18.499Z,27
2017-02-14T01:13:15.602Z,27
2017-02-14T01:14:15.937Z,27
2017-02-14T01:15:15.812Z,27
2017-02-14T01:16:15.895Z,27
2017-02-14T01:17:16.041Z,27
2017-02-14T01:18:18.904Z,27
2017-02-14T01:19:15.943Z,27
2017-02-14T01:20:19.099Z,27
2017-02-14T01:21:16.062Z,26.9
2017-02-14T01:22:19.025Z,26.9
2017-02-14T01:23:19.024Z,27
2017-02-14T01:24:16.217Z,27
2017-02-14T01:25:19.117Z,27
2017-02-14T01:26:16.668Z,27
2017-02-14T01:27:19.328Z,27
2017-02-14T01:28:19.184Z,27
2017-02-14T01:29:19.449Z,27
2017-02-14T01:30:19.398Z,27
2017-02-14T01:31:16.696Z,27
2017-02-14T01:32:19.635Z,27
2017-02-14T01:33:19.345Z,26.9
2017-02-14T01:34:16.498Z,26.9
2017-02-14T01:35:16.629Z,26.9
2017-02-14T01:36:16.705Z,27
2017-02-14T01:37:19.633Z,27
2017-02-14T01:38:19.893Z,27
2017-02-14T01:39:19.635Z,27
2017-02-14T01:40:19.705Z,27
2017-02-14T01:41:16.869Z,27
2017-02-14T01:42:17.052Z,27
2017-02-14T01:43:16.985Z,27
2017-02-14T01:44:20.324Z,27
2017-02-14T01:45:20.248Z,26.9
2017-02-14T01:46:17.206Z,27
2017-02-14T01:47:17.203Z,26.9
2017-02-14T01:48:20.266Z,26.9
2017-02-14T01:49:18.440Z,27
2017-02-14T01:50:17.613Z,26.9
2017-02-14T01:51:20.428Z,26.9
2017-02-14T01:52:20.404Z,27
2017-02-14T01:53:17.670Z,26.9
2017-02-14T01:54:17.767Z,27
2017-02-14T01:55:17.759Z,27
2017-02-14T01:56:18.043Z,27
2017-02-14T01:57:17.915Z,26.9
2017-02-14T01:58:17.937Z,26.9
2017-02-14T01:59:20.775Z,27
2017-02-14T02:00:20.963Z,27
2017-02-14T02:01:18.067Z,27
2017-02-14T02:02:19.116Z,27
2017-02-14T02:03:21.143Z,27
2017-02-14T02:04:18.264Z,27
2017-02-14T02:05:18.395Z,27
2017-02-14T02:06:21.247Z,27
2017-02-14T02:07:21.252Z,27
2017-02-14T02:08:21.559Z,27
2017-02-14T02:09:21.473Z,27
2017-02-14T02:10:18.510Z,27
2017-02-14T02:11:21.406Z,27
2017-02-14T02:12:21.565Z,27
2017-02-14T02:13:18.660Z,27
2017-02-14T02:14:19.124Z,27
2017-02-14T02:15:21.657Z,27
2017-02-14T02:16:21.825Z,27
2017-02-14T02:17:18.968Z,27
2017-02-14T02:18:21.873Z,27
2017-02-14T02:19:19.052Z,27
2017-02-14T02:20:19.418Z,27
2017-02-14T02:21:21.953Z,27
2017-02-14T02:22:19.028Z,27
2017-02-14T02:23:21.939Z,27
2017-02-14T02:24:19.122Z,27
2017-02-14T02:25:22.171Z,26.9
2017-02-14T02:26:19.535Z,27
2017-02-14T02:27:19.316Z,27
2017-02-14T02:28:22.321Z,26.9
2017-02-14T02:29:19.403Z,27
2017-02-14T02:30:22.431Z,27
2017-02-14T02:31:19.666Z,27
2017-02-14T02:32:19.943Z,27
2017-02-14T02:33:19.723Z,27
2017-02-14T02:34:22.571Z,27
2017-02-14T02:35:19.642Z,27
2017-02-14T02:36:22.678Z,27
2017-02-14T02:37:22.578Z,27
2017-02-14T02:38:20.007Z,27
2017-02-14T02:39:22.734Z,27
2017-02-14T02:40:22.633Z,26.9
2017-02-14T02:41:19.824Z,26.9
2017-02-14T02:42:22.754Z,27
2017-02-14T02:43:22.775Z,26.9
2017-02-14T02:44:23.162Z,26.9
2017-02-14T02:45:20.201Z,27
2017-02-14T02:46:23.583Z,27
2017-02-14T02:47:21.090Z,26.9
2017-02-14T02:48:23.009Z,26.9
2017-02-14T02:49:23.110Z,27
2017-02-14T02:50:23.394Z,26.9
2017-02-14T02:51:23.260Z,27
2017-02-14T02:52:23.190Z,26.9
2017-02-14T02:53:20.276Z,26.9
2017-02-14T02:54:23.331Z,27
2017-02-14T02:55:23.330Z,27
2017-02-14T02:56:20.952Z,27
2017-02-14T02:57:23.531Z,27
2017-02-14T02:58:20.752Z,27
2017-02-14T02:59:21.309Z,27
2017-02-14T03:00:23.642Z,27
2017-02-14T03:01:23.720Z,27
2017-02-14T03:02:23.932Z,27
2017-02-14T03:03:21.473Z,27
2017-02-14T03:04:20.862Z,27
2017-02-14T03:05:24.491Z,27
2017-02-14T03:06:24.502Z,27
2017-02-14T03:07:23.964Z,27
2017-02-14T03:08:21.330Z,27
2017-02-14T03:09:21.226Z,27
2017-02-14T03:10:21.273Z,27
2017-02-14T03:11:24.022Z,27
2017-02-14T03:12:24.185Z,26.9
2017-02-14T03:13:24.116Z,26.9
2017-02-14T03:14:21.672Z,27
2017-02-14T03:15:24.253Z,27
2017-02-14T03:16:21.341Z,27
2017-02-14T03:17:21.439Z,27
2017-02-14T03:18:24.349Z,27
2017-02-14T03:19:24.485Z,27
2017-02-14T03:20:25.511Z,27
2017-02-14T03:21:24.619Z,26.9
2017-02-14T03:22:24.671Z,27
2017-02-14T03:23:21.777Z,27
2017-02-14T03:24:21.903Z,27
2017-02-14T03:25:21.921Z,27
2017-02-14T03:26:25.110Z,27
2017-02-14T03:27:24.812Z,27
2017-02-14T03:28:24.734Z,27
2017-02-14T03:29:22.607Z,26.9
2017-02-14T03:30:26.251Z,27
2017-02-14T03:31:25.040Z,27
2017-02-14T03:32:23.301Z,27
2017-02-14T03:33:25.320Z,27
2017-02-14T03:34:25.377Z,27
2017-02-14T03:35:25.296Z,27
2017-02-14T03:36:23.369Z,27
2017-02-14T03:37:25.361Z,27
2017-02-14T03:38:25.863Z,27
2017-02-14T03:39:25.667Z,27
2017-02-14T03:40:22.567Z,27
2017-02-14T03:41:25.393Z,27
2017-02-14T03:42:25.665Z,27
2017-02-14T03:43:23.505Z,27
2017-02-14T03:44:24.075Z,26.9
2017-02-14T03:45:25.863Z,26.9
2017-02-14T03:46:23.754Z,27
2017-02-14T03:47:23.046Z,27
2017-02-14T03:48:23.257Z,27
2017-02-14T03:49:23.349Z,27
2017-02-14T03:50:26.503Z,27
2017-02-14T03:51:23.254Z,27
2017-02-14T03:52:26.259Z,27
2017-02-14T03:53:23.382Z,27
2017-02-14T03:54:23.491Z,27
2017-02-14T03:55:26.509Z,27
2017-02-14T03:56:23.906Z,27
2017-02-14T03:57:26.555Z,26.9
2017-02-14T03:58:26.642Z,26.9
2017-02-14T03:59:26.609Z,27
2017-02-14T04:00:26.766Z,27
2017-02-14T04:01:23.964Z,27
2017-02-14T04:02:27.223Z,27
2017-02-14T04:03:24.013Z,27
2017-02-14T04:04:24.220Z,27
2017-02-14T04:05:24.230Z,27
2017-02-14T04:06:24.175Z,27
2017-02-14T04:07:24.361Z,27
2017-02-14T04:08:24.567Z,27
2017-02-14T04:09:24.284Z,27
2017-02-14T04:10:27.200Z,27
2017-02-14T04:11:27.372Z,27
2017-02-14T04:12:27.460Z,27
2017-02-14T04:13:24.561Z,27
2017-02-14T04:14:27.824Z,27
2017-02-14T04:15:27.638Z,27
2017-02-14T04:16:27.668Z,27
2017-02-14T04:17:27.597Z,27
2017-02-14T04:18:27.682Z,27
2017-02-14T04:19:24.824Z,27
2017-02-14T04:20:28.007Z,26.9
2017-02-14T04:21:24.982Z,26.9
2017-02-14T04:22:27.981Z,27
2017-02-14T04:23:28.110Z,27
2017-02-14T04:24:28.113Z,27
2017-02-14T04:25:25.216Z,27
2017-02-14T04:26:28.587Z,27
2017-02-14T04:27:26.170Z,27
2017-02-14T04:28:25.486Z,27
2017-02-14T04:29:25.710Z,27
2017-02-14T04:30:26.285Z,27
2017-02-14T04:31:25.871Z,27
2017-02-14T04:32:25.950Z,27
2017-02-14T04:33:28.696Z,27
2017-02-14T04:34:25.937Z,27
2017-02-14T04:35:28.806Z,27
2017-02-14T04:36:26.635Z,27
2017-02-14T04:37:26.103Z,27
2017-02-14T04:38:26.169Z,27
2017-02-14T04:39:26.043Z,27
2017-02-14T04:40:28.981Z,27
2017-02-14T04:41:29.202Z,27
2017-02-14T04:42:26.365Z,27
2017-02-14T04:43:26.904Z,27
2017-02-14T04:44:26.602Z,27
2017-02-14T04:45:27.062Z,27
2017-02-14T04:46:29.328Z,27
2017-02-14T04:47:29.333Z,27
2017-02-14T04:48:26.530Z,27
2017-02-14T04:49:29.468Z,27
2017-02-14T04:50:27.067Z,27
2017-02-14T04:51:29.550Z,27
2017-02-14T04:52:29.578Z,27
2017-02-14T04:53:29.714Z,27
2017-02-14T04:54:26.700Z,27
2017-02-14T04:55:26.876Z,27
2017-02-14T04:56:29.988Z,27
2017-02-14T04:57:26.774Z,27
2017-02-14T04:58:27.010Z,27
2017-02-14T04:59:26.914Z,27
2017-02-14T05:00:27.104Z,27
2017-02-14T05:01:30.101Z,27
2017-02-14T05:02:31.015Z,27
2017-02-14T05:03:30.047Z,27
2017-02-14T05:04:27.351Z,27
2017-02-14T05:05:30.339Z,27
2017-02-14T05:06:27.457Z,27
2017-02-14T05:07:27.582Z,27
2017-02-14T05:08:27.820Z,27
2017-02-14T05:09:27.596Z,27
2017-02-14T05:10:30.427Z,27
2017-02-14T05:11:27.739Z,27
2017-02-14T05:12:30.648Z,27
2017-02-14T05:13:27.856Z,27
2017-02-14T05:14:31.074Z,27
2017-02-14T05:15:30.821Z,27
2017-02-14T05:16:27.915Z,27
2017-02-14T05:17:30.852Z,27
2017-02-14T05:18:28.144Z,27
2017-02-14T05:19:28.130Z,27
2017-02-14T05:20:28.509Z,27
2017-02-14T05:21:31.161Z,27
2017-02-14T05:22:31.182Z,27
2017-02-14T05:23:31.314Z,27
2017-02-14T05:24:31.314Z,27
2017-02-14T05:25:28.479Z,27
2017-02-14T05:26:28.795Z,27
2017-02-14T05:27:29.200Z,27
2017-02-14T05:28:31.605Z,27
2017-02-14T05:29:28.643Z,27
2017-02-14T05:30:28.561Z,27
2017-02-14T05:31:31.426Z,27
2017-02-14T05:32:29.007Z,27
2017-02-14T05:33:31.720Z,27
2017-02-14T05:34:31.624Z,27
2017-02-14T05:35:28.800Z,27
2017-02-14T05:36:31.788Z,27
2017-02-14T05:37:28.845Z,27
2017-02-14T05:38:29.316Z,27
2017-02-14T05:39:29.032Z,27
2017-02-14T05:40:29.032Z,27
2017-02-14T05:41:31.953Z,27
2017-02-14T05:42:29.115Z,27
2017-02-14T05:43:31.954Z,27
2017-02-14T05:44:29.434Z,27
2017-02-14T05:45:31.887Z,27
2017-02-14T05:46:29.345Z,27
2017-02-14T05:47:32.098Z,27
2017-02-14T05:48:29.295Z,27
2017-02-14T05:49:32.355Z,27
2017-02-14T05:50:32.512Z,27
2017-02-14T05:51:31.345Z,27
2017-02-14T05:52:31.079Z,27
2017-02-14T05:53:32.663Z,27
2017-02-14T05:54:32.429Z,27
2017-02-14T05:55:32.670Z,27
2017-02-14T05:56:32.905Z,27
2017-02-14T05:57:32.708Z,27
2017-02-14T05:58:32.797Z,27
2017-02-14T05:59:32.813Z,27
2017-02-14T06:00:33.020Z,27
2017-02-14T06:01:33.078Z,27
2017-02-14T06:02:30.432Z,27
2017-02-14T06:03:32.973Z,27
2017-02-14T06:04:33.024Z,27
2017-02-14T06:05:33.229Z,27
2017-02-14T06:06:33.241Z,27.1
2017-02-14T06:07:33.305Z,27.1
2017-02-14T06:08:30.582Z,27.1
2017-02-14T06:09:33.386Z,27.1
2017-02-14T06:10:33.246Z,27.1
2017-02-14T06:11:30.612Z,27.1
2017-02-14T06:12:33.459Z,27.1
2017-02-14T06:13:30.531Z,27.1
2017-02-14T06:14:30.907Z,27.1
2017-02-14T06:15:33.570Z,27.1
2017-02-14T06:16:30.704Z,27.1
2017-02-14T06:17:30.820Z,27.1
2017-02-14T06:18:33.682Z,27.1
2017-02-14T06:19:33.735Z,27.1
2017-02-14T06:20:31.198Z,27.1
2017-02-14T06:21:33.797Z,27.1
2017-02-14T06:22:33.830Z,27.1
2017-02-14T06:23:33.837Z,27.1
2017-02-14T06:24:30.997Z,27.1
2017-02-14T06:25:33.914Z,27.1
2017-02-14T06:26:31.243Z,27.1
2017-02-14T06:27:34.004Z,27.1
2017-02-14T06:28:34.012Z,27.1
2017-02-14T06:29:34.140Z,27.1
2017-02-14T06:30:31.158Z,27.1
2017-02-14T06:31:31.279Z,27.1
2017-02-14T06:32:34.463Z,27.1
2017-02-14T06:33:31.509Z,27.1
2017-02-14T06:34:31.610Z,27.1
2017-02-14T06:35:31.579Z,27.1
2017-02-14T06:36:34.430Z,27.1
2017-02-14T06:37:31.678Z,27.1
2017-02-14T06:38:34.951Z,27.1
2017-02-14T06:39:34.653Z,27.1
2017-02-14T06:40:31.757Z,27.1
2017-02-14T06:41:34.643Z,27.1
2017-02-14T06:42:34.881Z,27.2
2017-02-14T06:43:34.824Z,27.1
2017-02-14T06:44:35.251Z,27.2
2017-02-14T06:45:32.081Z,27.2
2017-02-14T06:46:35.055Z,27.2
2017-02-14T06:47:32.170Z,27.2
2017-02-14T06:48:35.133Z,27.2
2017-02-14T06:49:35.064Z,27.2
2017-02-14T06:50:32.522Z,27.2
2017-02-14T06:51:35.136Z,27.2
2017-02-14T06:52:38.544Z,27.2
2017-02-14T06:53:32.546Z,27.2
2017-02-14T06:54:32.619Z,27.2
2017-02-14T06:55:35.425Z,27.2
2017-02-14T06:56:33.058Z,27.2
2017-02-14T06:57:32.709Z,27.1
2017-02-14T06:58:35.769Z,27
2017-02-14T06:59:35.733Z,26.9
2017-02-14T07:00:35.786Z,26.8
2017-02-14T07:01:32.910Z,26.7
2017-02-14T07:02:36.122Z,26.6
2017-02-14T07:03:36.574Z,26.5
2017-02-14T07:04:33.253Z,26.4
2017-02-14T07:05:36.125Z,26.3
2017-02-14T07:06:36.261Z,26.2
2017-02-14T07:07:33.500Z,26.1
2017-02-14T07:08:36.644Z,26.1
2017-02-14T07:09:36.461Z,25.9
2017-02-14T07:10:33.507Z,25.9
2017-02-14T07:11:36.565Z,25.8
2017-02-14T07:12:36.462Z,25.8
2017-02-14T07:13:33.671Z,25.7
2017-02-14T07:14:34.076Z,25.7
2017-02-14T07:15:36.691Z,25.6
2017-02-14T07:16:33.898Z,25.6
2017-02-14T07:17:36.853Z,25.6
2017-02-14T07:18:34.056Z,25.6
2017-02-14T07:19:36.991Z,25.5
2017-02-14T07:20:37.240Z,25.5
2017-02-14T07:21:34.198Z,25.5
2017-02-14T07:22:37.054Z,25.5
2017-02-14T07:23:34.186Z,25.4
2017-02-14T07:24:37.794Z,25.3
2017-02-14T07:25:38.491Z,25.4
2017-02-14T07:26:34.735Z,25.3
2017-02-14T07:27:37.275Z,25.2
2017-02-14T07:28:37.353Z,25.2
2017-02-14T07:29:34.601Z,25.2
2017-02-14T07:30:34.756Z,25.2
2017-02-14T07:31:37.606Z,25.1
2017-02-14T07:32:35.083Z,25.1
2017-02-14T07:33:35.852Z,25.1
2017-02-14T07:34:38.443Z,25.1
2017-02-14T07:35:35.083Z,25.1
2017-02-14T07:36:35.118Z,25
2017-02-14T07:37:38.011Z,25
2017-02-14T07:38:38.210Z,25
2017-02-14T07:39:38.070Z,25
2017-02-14T07:40:35.134Z,25
2017-02-14T07:41:38.127Z,25
2017-02-14T07:42:41.132Z,25
2017-02-14T07:43:41.919Z,25
2017-02-14T07:44:45.254Z,25
2017-02-14T07:45:35.476Z,25
2017-02-14T07:46:35.691Z,25
2017-02-14T07:47:38.472Z,24.9
2017-02-14T07:48:35.707Z,24.9
2017-02-14T07:49:38.531Z,24.9
2017-02-14T07:50:36.054Z,24.9
2017-02-14T07:51:35.766Z,24.9
2017-02-14T07:52:35.823Z,24.9
2017-02-14T07:53:39.324Z,24.9
2017-02-14T07:54:35.821Z,24.9
2017-02-14T07:55:38.735Z,24.9
2017-02-14T07:56:36.343Z,24.9
2017-02-14T07:57:36.089Z,25
2017-02-14T07:58:36.064Z,25
2017-02-14T07:59:38.771Z,25
2017-02-14T08:00:36.090Z,25.1
2017-02-14T08:01:36.023Z,25.1
2017-02-14T08:02:37.021Z,25.2
2017-02-14T08:03:36.210Z,25.3
2017-02-14T08:04:36.240Z,25.3
2017-02-14T08:05:41.188Z,25.4
2017-02-14T08:06:36.298Z,25.4
2017-02-14T08:07:36.301Z,25.5
2017-02-14T08:08:36.684Z,25.6
2017-02-14T08:09:36.389Z,25.6
2017-02-14T08:10:36.537Z,25.7
2017-02-14T08:11:36.751Z,25.8
2017-02-14T08:12:39.556Z,25.8
2017-02-14T08:13:36.910Z,25.9
2017-02-14T08:14:40.065Z,25.9
2017-02-14T08:15:37.066Z,25.8
2017-02-14T08:16:40.020Z,25.8
2017-02-14T08:17:37.045Z,25.8
2017-02-14T08:18:40.046Z,25.8
2017-02-14T08:19:37.197Z,25.8
2017-02-14T08:20:40.430Z,25.8
2017-02-14T08:21:40.097Z,25.9
2017-02-14T08:22:40.245Z,25.9
2017-02-14T08:23:40.368Z,25.9
2017-02-14T08:24:40.357Z,26
2017-02-14T08:25:37.548Z,26
2017-02-14T08:26:40.748Z,26
2017-02-14T08:27:40.978Z,26.1
2017-02-14T08:28:37.680Z,26.1
2017-02-14T08:29:37.737Z,26.1
2017-02-14T08:30:37.738Z,26.2
2017-02-14T08:31:40.582Z,26.2
2017-02-14T08:32:38.076Z,26.2
2017-02-14T08:33:40.553Z,26.3
2017-02-14T08:34:40.724Z,26.3
2017-02-14T08:35:40.811Z,26.3
2017-02-14T08:36:40.685Z,26.3
2017-02-14T08:37:37.991Z,26.4
2017-02-14T08:38:41.028Z,26.4
2017-02-14T08:39:41.009Z,26.4
2017-02-14T08:40:41.878Z,26.5
2017-02-14T08:41:41.030Z,26.5
2017-02-14T08:42:38.269Z,26.5
2017-02-14T08:43:41.144Z,26.6
2017-02-14T08:44:38.628Z,26.6
2017-02-14T08:45:38.435Z,26.6
2017-02-14T08:46:41.193Z,26.7
2017-02-14T08:47:38.335Z,26.7
2017-02-14T08:48:41.289Z,26.7
2017-02-14T08:49:41.475Z,26.8
2017-02-14T08:50:41.840Z,26.9
2017-02-14T08:51:38.802Z,26.9
2017-02-14T08:52:38.852Z,26.9
2017-02-14T08:53:39.423Z,27
2017-02-14T08:54:42.406Z,27
2017-02-14T08:55:39.043Z,27
2017-02-14T08:56:42.266Z,26.9
2017-02-14T08:57:41.981Z,27
2017-02-14T08:58:39.051Z,27
2017-02-14T08:59:39.089Z,27
2017-02-14T09:00:39.261Z,27
2017-02-14T09:01:42.149Z,27
2017-02-14T09:02:42.523Z,27
2017-02-14T09:03:42.201Z,27
2017-02-14T09:04:40.758Z,27
2017-02-14T09:05:39.439Z,27
2017-02-14T09:06:39.534Z,27
2017-02-14T09:07:42.484Z,27
2017-02-14T09:08:40.034Z,27
2017-02-14T09:09:42.711Z,27
2017-02-14T09:10:42.771Z,27
2017-02-14T09:11:39.899Z,27
2017-02-14T09:12:39.893Z,27
2017-02-14T09:13:39.940Z,27
2017-02-14T09:14:43.222Z,27
2017-02-14T09:15:40.038Z,27.1
2017-02-14T09:16:42.989Z,27.1
2017-02-14T09:17:43.196Z,27
2017-02-14T09:18:43.689Z,27.1
2017-02-14T09:19:40.388Z,27.1
2017-02-14T09:20:40.757Z,27.1
2017-02-14T09:21:40.585Z,27.1
2017-02-14T09:22:43.387Z,27.1
2017-02-14T09:23:43.553Z,27.1
2017-02-14T09:24:40.562Z,27.1
2017-02-14T09:25:40.639Z,27.2
2017-02-14T09:26:40.985Z,27.2
2017-02-14T09:27:40.752Z,27.2
2017-02-14T09:28:43.690Z,27.2
2017-02-14T09:29:41.070Z,27.2
2017-02-14T09:30:43.827Z,27.2
2017-02-14T09:31:41.109Z,27.2
2017-02-14T09:32:41.353Z,27.2
2017-02-14T09:33:41.121Z,27.2
2017-02-14T09:34:41.334Z,27.2
2017-02-14T09:35:41.771Z,27.3
2017-02-14T09:36:41.257Z,27.2
2017-02-14T09:37:41.438Z,27.3
2017-02-14T09:38:41.565Z,27.3
2017-02-14T09:39:41.556Z,27.3
2017-02-14T09:40:42.256Z,27.3
2017-02-14T09:41:41.532Z,27.3
2017-02-14T09:42:42.148Z,27.3
2017-02-14T09:43:41.651Z,27.3
2017-02-14T09:44:44.726Z,27.3
2017-02-14T09:45:41.660Z,27.4
2017-02-14T09:46:41.799Z,27.4
2017-02-14T09:47:45.362Z,27.4
2017-02-14T09:48:41.763Z,27.4
2017-02-14T09:49:44.716Z,27.4
2017-02-14T09:50:42.139Z,27.4
2017-02-14T09:51:44.885Z,27.4
2017-02-14T09:52:44.797Z,27.5
2017-02-14T09:53:42.016Z,27.5
2017-02-14T09:54:43.125Z,27.2
2017-02-14T09:55:45.579Z,27.5
2017-02-14T09:56:45.362Z,27.5
2017-02-14T09:57:45.527Z,27.5
2017-02-14T09:58:45.768Z,27.5
2017-02-14T09:59:49.736Z,27.5
2017-02-14T10:00:42.483Z,27.5
2017-02-14T10:01:46.000Z,27.5
2017-02-14T10:02:45.765Z,27.5
2017-02-14T10:03:45.366Z,27.5
2017-02-14T10:04:46.076Z,27.5
2017-02-14T10:05:42.652Z,27.6
2017-02-14T10:06:42.730Z,27.6
2017-02-14T10:07:46.292Z,27.6
2017-02-14T10:08:43.168Z,27.5
2017-02-14T10:09:42.948Z,27.6
2017-02-14T10:10:42.871Z,27.6
2017-02-14T10:11:42.941Z,27.6
2017-02-14T10:12:45.899Z,27.6
2017-02-14T10:13:43.051Z,27.6
2017-02-14T10:14:43.450Z,27.6
2017-02-14T10:15:43.314Z,27.6
2017-02-14T10:16:46.723Z,27.6
2017-02-14T10:17:46.204Z,27.6
2017-02-14T10:18:43.341Z,27.7
2017-02-14T10:19:44.822Z,27.7
2017-02-14T10:20:43.745Z,27.7
2017-02-14T10:21:46.367Z,27.7
2017-02-14T10:22:43.746Z,27.7
2017-02-14T10:23:43.642Z,27.7
2017-02-14T10:24:43.743Z,27.7
2017-02-14T10:25:46.570Z,27.7
2017-02-14T10:26:44.103Z,27.7
2017-02-14T10:27:43.769Z,27.7
2017-02-14T10:28:46.754Z,27.8
2017-02-14T10:29:46.750Z,27.8
2017-02-14T10:30:46.952Z,27.7
2017-02-14T10:31:44.176Z,27.8
2017-02-14T10:32:44.514Z,27.8
2017-02-14T10:33:47.037Z,27.8
2017-02-14T10:34:44.385Z,27.8
2017-02-14T10:35:47.172Z,27.8
2017-02-14T10:36:47.179Z,27.8
2017-02-14T10:37:47.369Z,27.8
2017-02-14T10:38:44.707Z,27.8
2017-02-14T10:39:44.998Z,27.8
2017-02-14T10:40:47.331Z,27.9
2017-02-14T10:41:44.596Z,27.9
2017-02-14T10:42:44.692Z,27.8
2017-02-14T10:43:45.222Z,27.9
2017-02-14T10:44:46.306Z,27.9
2017-02-14T10:45:44.931Z,27.9
2017-02-14T10:46:47.695Z,27.9
2017-02-14T10:47:47.751Z,27.9
2017-02-14T10:48:47.890Z,27.9
2017-02-14T10:49:48.642Z,27.9
2017-02-14T10:50:45.437Z,27.9
2017-02-14T10:51:45.183Z,27.9
2017-02-14T10:52:45.145Z,27.9
2017-02-14T10:53:45.206Z,28
2017-02-14T10:54:45.269Z,27.9
2017-02-14T10:55:48.979Z,28
2017-02-14T10:56:48.985Z,28
2017-02-14T10:57:48.427Z,28
2017-02-14T10:58:48.965Z,28
2017-02-14T10:59:48.842Z,28
2017-02-14T11:00:45.551Z,28
2017-02-14T11:01:48.526Z,28
2017-02-14T11:02:45.924Z,28
2017-02-14T11:03:45.963Z,28
2017-02-14T11:04:45.941Z,28
2017-02-14T11:05:45.722Z,28
2017-02-14T11:06:48.830Z,28.1
2017-02-14T11:07:46.106Z,28
2017-02-14T11:08:46.078Z,28.1
2017-02-14T11:09:48.917Z,28.1
2017-02-14T11:10:49.035Z,28.1
2017-02-14T11:11:49.044Z,28.1
2017-02-14T11:12:48.989Z,28.1
2017-02-14T11:13:46.397Z,28.1
2017-02-14T11:14:49.587Z,28.1
2017-02-14T11:15:49.272Z,28.1
2017-02-14T11:16:46.625Z,28.1
2017-02-14T11:17:49.357Z,28.2
2017-02-14T11:18:46.570Z,28.2
2017-02-14T11:19:46.796Z,28.2
2017-02-14T11:20:47.011Z,28.2
2017-02-14T11:21:47.383Z,28.2
2017-02-14T11:22:46.971Z,28.2
2017-02-14T11:23:49.672Z,28.2
2017-02-14T11:24:49.756Z,28.2
2017-02-14T11:25:46.894Z,28.3
2017-02-14T11:26:47.434Z,28.2
2017-02-14T11:27:50.077Z,28.3
2017-02-14T11:28:47.420Z,28.3
2017-02-14T11:29:50.231Z,28.3
2017-02-14T11:30:50.332Z,28.3
2017-02-14T11:31:50.337Z,28.3
2017-02-14T11:32:47.337Z,28.3
2017-02-14T11:33:47.529Z,28.3
2017-02-14T11:34:47.425Z,28.2
2017-02-14T11:35:50.425Z,28.3
2017-02-14T11:36:50.511Z,28.3
2017-02-14T11:37:50.482Z,28.3
2017-02-14T11:38:50.716Z,28.3
2017-02-14T11:39:47.801Z,28.3
2017-02-14T11:40:47.837Z,28.3
2017-02-14T11:41:48.616Z,28.3
2017-02-14T11:42:47.946Z,28.3
2017-02-14T11:43:48.144Z,28.3
2017-02-14T11:44:51.031Z,28.3
2017-02-14T11:45:51.072Z,28.2
2017-02-14T11:46:51.725Z,28.3
2017-02-14T11:47:48.222Z,28.3
2017-02-14T11:48:51.201Z,28.3
2017-02-14T11:49:48.613Z,28.3
2017-02-14T11:50:48.512Z,28.3
2017-02-14T11:51:51.999Z,28.3
2017-02-14T11:52:52.215Z,28.3
2017-02-14T11:53:48.605Z,28.3
2017-02-14T11:54:51.609Z,28.3
2017-02-14T11:55:51.568Z,28.3
2017-02-14T11:56:52.240Z,28.3
2017-02-14T11:57:48.784Z,28.3
2017-02-14T11:58:48.836Z,28.3
2017-02-14T11:59:49.659Z,28.3
2017-02-14T12:00:48.983Z,28.3
2017-02-14T12:01:49.005Z,28.4
2017-02-14T12:02:52.000Z,28.4
2017-02-14T12:03:49.283Z,28.3
2017-02-14T12:04:49.170Z,28.4
2017-02-14T12:05:49.365Z,28.4
2017-02-14T12:06:49.283Z,28.4
2017-02-14T12:07:52.321Z,28.4
2017-02-14T12:08:49.418Z,28.5
2017-02-14T12:09:52.379Z,28.5
2017-02-14T12:10:49.689Z,28.5
2017-02-14T12:11:49.831Z,28.5
2017-02-14T12:12:52.683Z,28.5
2017-02-14T12:13:49.762Z,28.5
2017-02-14T12:14:50.543Z,28.5
2017-02-14T12:15:49.842Z,28.5
2017-02-14T12:16:49.904Z,28.5
2017-02-14T12:17:50.011Z,28.5
2017-02-14T12:18:53.136Z,28.5
2017-02-14T12:19:53.085Z,28.5
2017-02-14T12:20:53.137Z,28.5
2017-02-14T12:21:50.320Z,28.5
2017-02-14T12:22:50.232Z,28.6
2017-02-14T12:23:50.238Z,28.6
2017-02-14T12:24:50.337Z,28.6
2017-02-14T12:25:53.369Z,28.6
2017-02-14T12:26:51.172Z,28.6
2017-02-14T12:27:55.036Z,28.6
2017-02-14T12:28:50.584Z,28.6
2017-02-14T12:29:53.368Z,28.6
2017-02-14T12:30:50.823Z,28.6
2017-02-14T12:31:53.653Z,28.6
2017-02-14T12:32:54.396Z,28.6
2017-02-14T12:33:54.679Z,28.6
2017-02-14T12:34:54.890Z,28.6
2017-02-14T12:35:51.025Z,28.6
2017-02-14T12:36:54.035Z,28.6
2017-02-14T12:37:53.369Z,28.6
2017-02-14T12:38:54.023Z,28.6
2017-02-14T12:39:52.032Z,28.6
2017-02-14T12:40:51.367Z,28.6
2017-02-14T12:41:52.208Z,28.6
2017-02-14T12:42:51.878Z,28.6
2017-02-14T12:43:55.527Z,28.6
2017-02-14T12:44:51.805Z,28.6
2017-02-14T12:45:51.468Z,28.6
2017-02-14T12:46:55.074Z,28.6
2017-02-14T12:47:52.653Z,28.6
2017-02-14T12:48:55.003Z,28.6
2017-02-14T12:49:51.550Z,28.6
2017-02-14T12:50:51.712Z,28.6
2017-02-14T12:51:54.485Z,28.6
2017-02-14T12:52:54.680Z,28.6
2017-02-14T12:53:51.901Z,28.6
2017-02-14T12:54:55.795Z,28.6
2017-02-14T12:55:54.840Z,28.6
2017-02-14T12:56:54.928Z,28.6
2017-02-14T12:57:51.907Z,28.6
2017-02-14T12:58:52.942Z,28.6
2017-02-14T12:59:51.958Z,28.6
2017-02-14T13:00:54.894Z,28.6
2017-02-14T13:01:54.969Z,28.6
2017-02-14T13:02:55.047Z,28.6
2017-02-14T13:03:55.875Z,28.6
2017-02-14T13:04:53.050Z,28.6
2017-02-14T13:05:55.398Z,28.7
2017-02-14T13:06:55.362Z,28.7
2017-02-14T13:07:53.176Z,28.6
2017-02-14T13:08:55.285Z,28.7
2017-02-14T13:09:55.517Z,28.6
2017-02-14T13:10:52.680Z,28.7
2017-02-14T13:11:52.736Z,28.7
2017-02-14T13:12:52.775Z,28.7
2017-02-14T13:13:55.515Z,28.6
2017-02-14T13:14:52.613Z,28.7
2017-02-14T13:15:56.262Z,28.7
2017-02-14T13:16:53.479Z,28.7
2017-02-14T13:17:55.683Z,28.7
2017-02-14T13:18:52.901Z,28.7
2017-02-14T13:19:55.825Z,28.7
2017-02-14T13:20:52.979Z,28.7
2017-02-14T13:21:56.145Z,28.7
2017-02-14T13:22:53.213Z,28.6
2017-02-14T13:23:56.199Z,28.7
2017-02-14T13:24:53.211Z,28.6
2017-02-14T13:25:56.162Z,28.7
2017-02-14T13:26:56.159Z,28.7
2017-02-14T13:27:56.449Z,28.6
2017-02-14T13:28:53.377Z,28.7
2017-02-14T13:29:56.399Z,28.6
2017-02-14T13:30:53.450Z,28.7
2017-02-14T13:31:53.726Z,28.7
2017-02-14T13:32:56.624Z,28.7
2017-02-14T13:33:56.647Z,28.7
2017-02-14T13:34:53.727Z,28.7
2017-02-14T13:35:55.236Z,28.7
2017-02-14T13:36:53.877Z,28.7
2017-02-14T13:37:54.687Z,28.7
2017-02-14T13:38:54.697Z,28.7
2017-02-14T13:39:57.465Z,28.7
2017-02-14T13:40:56.802Z,28.7
2017-02-14T13:41:54.225Z,28.6
2017-02-14T13:42:54.119Z,28.7
2017-02-14T13:43:56.945Z,28.7